createdAt,value
2022-09-19T00:00:25.581Z,17.8
2022-09-19T00:02:42.759Z,17.9
2022-09-19T00:05:00.122Z,17.8
2022-09-19T00:07:16.624Z,17.8
2022-09-19T00:09:33.895Z,17.8
2022-09-19T00:11:50.938Z,17.8
2022-09-19T00:14:08.257Z,17.8
2022-09-19T00:16:25.434Z,17.6
2022-09-19T00:18:42.520Z,17.6
2022-09-19T00:20:59.730Z,17.6
2022-09-19T00:23:16.900Z,17.5
2022-09-19T00:25:32.937Z,17.5
2022-09-19T00:27:49.259Z,18.1
2022-09-19T00:30:06.198Z,18.1
2022-09-19T00:32:23.342Z,17.6
2022-09-19T00:34:40.632Z,17.6
2022-09-19T00:36:57.554Z,17.6
2022-09-19T00:39:14.969Z,17.6
2022-09-19T00:41:32.016Z,17.5
2022-09-19T00:43:49.308Z,17.6
2022-09-19T00:46:06.657Z,17.6
2022-09-19T00:48:23.721Z,17.8
2022-09-19T00:50:40.788Z,17.5
2022-09-19T00:52:58.333Z,17.6
2022-09-19T00:55:15.171Z,17.4
2022-09-19T00:57:32.259Z,17.6
2022-09-19T00:59:49.602Z,17.6
2022-09-19T01:02:06.615Z,17.5
2022-09-19T01:04:23.981Z,17.5
2022-09-19T01:06:41.086Z,17.6
2022-09-19T01:08:57.821Z,17.7
2022-09-19T01:11:15.368Z,17.4
2022-09-19T01:13:32.318Z,17.5
2022-09-19T01:15:49.643Z,17.5
2022-09-19T01:18:05.903Z,17.2
2022-09-19T01:20:22.936Z,17.9
2022-09-19T01:22:39.961Z,17.1
2022-09-19T01:24:57.081Z,17.2
2022-09-19T01:27:14.491Z,17.3
2022-09-19T01:29:31.833Z,17.3
2022-09-19T01:31:49.368Z,17.3
2022-09-19T01:34:06.358Z,17.8
2022-09-19T01:36:23.355Z,17.1
2022-09-19T01:38:40.639Z,17.1
2022-09-19T01:40:57.238Z,17.1
2022-09-19T01:43:13.792Z,17.9
2022-09-19T01:45:30.654Z,17.4
2022-09-19T01:47:47.236Z,17.8
2022-09-19T01:50:04.221Z,17.4
2022-09-19T01:52:21.248Z,17.1
2022-09-19T01:54:38.651Z,17.2
2022-09-19T01:56:55.806Z,17.3
2022-09-19T02:01:30.654Z,17.3
2022-09-19T02:03:47.739Z,17.3
2022-09-19T02:06:04.457Z,17.3
2022-09-19T02:08:21.229Z,17.8
2022-09-19T02:10:38.115Z,17.9
2022-09-19T02:12:54.415Z,17.8
2022-09-19T02:15:12.082Z,17.8
2022-09-19T02:17:29.060Z,17.1
2022-09-19T02:19:45.984Z,17.8
2022-09-19T02:22:02.819Z,17.6
2022-09-19T02:24:19.724Z,17.1
2022-09-19T02:26:36.652Z,17.4
2022-09-19T02:28:53.170Z,17.1
2022-09-19T02:31:10.664Z,17.1
2022-09-19T02:33:27.655Z,16.9
2022-09-19T02:35:44.783Z,17.2
2022-09-19T02:38:01.700Z,17.1
2022-09-19T02:40:18.929Z,16.8
2022-09-19T02:44:51.974Z,17.3
2022-09-19T02:47:09.380Z,17.7
2022-09-19T02:49:26.133Z,17.3
2022-09-19T02:51:43.142Z,17.1
2022-09-19T02:56:17.035Z,17.3
2022-09-19T02:58:33.949Z,16.8
2022-09-19T03:02:25.354Z,16.9
2022-09-19T03:04:42.095Z,17.1
2022-09-19T03:06:59.244Z,16.9
2022-09-19T03:11:33.547Z,17.3
2022-09-19T03:13:50.584Z,17.1
2022-09-19T03:18:27.052Z,17.3
2022-09-19T03:20:42.040Z,17.3
2022-09-19T03:22:59.165Z,17.1
2022-09-19T03:25:16.168Z,17.1
2022-09-19T03:27:32.866Z,16.8
2022-09-19T03:29:49.584Z,17.4
2022-09-19T03:32:06.065Z,17.4
2022-09-19T03:34:23.745Z,17.2
2022-09-19T03:36:40.691Z,16.8
2022-09-19T03:38:57.789Z,16.9
2022-09-19T03:41:14.939Z,16.8
2022-09-19T03:43:31.639Z,16.8
2022-09-19T03:45:48.412Z,16.6
2022-09-19T03:48:05.110Z,16.9
2022-09-19T03:50:22.318Z,17.6
2022-09-19T03:52:38.983Z,16.9
2022-09-19T03:54:55.724Z,16.8
2022-09-19T03:59:29.423Z,17.1
2022-09-19T04:01:46.222Z,16.9
2022-09-19T04:04:03.177Z,16.6
2022-09-19T04:06:20.068Z,17.1
2022-09-19T04:08:36.578Z,16.8
2022-09-19T04:10:53.258Z,16.9
2022-09-19T04:13:10.196Z,17.3
2022-09-19T04:15:27.294Z,17.2
2022-09-19T04:17:53.878Z,16.7
2022-09-19T04:20:11.329Z,16.8
2022-09-19T04:22:28.330Z,16.8
2022-09-19T04:24:45.211Z,16.8
2022-09-19T04:27:01.903Z,16.8
2022-09-19T04:29:18.765Z,16.9
2022-09-19T04:31:35.839Z,17.1
2022-09-19T04:33:52.793Z,16.6
2022-09-19T04:36:09.952Z,16.7
2022-09-19T04:38:26.768Z,16.6
2022-09-19T04:40:43.666Z,16.8
2022-09-19T04:43:00.596Z,17.2
2022-09-19T04:45:17.731Z,16.3
2022-09-19T04:47:34.744Z,16.7
2022-09-19T04:49:51.902Z,16.9
2022-09-19T04:52:08.537Z,16.8
2022-09-19T04:54:25.600Z,16.5
2022-09-19T04:56:42.404Z,16.8
2022-09-19T04:58:59.227Z,16.8
2022-09-19T05:01:16.453Z,17.1
2022-09-19T05:03:33.392Z,16.8
2022-09-19T05:05:50.349Z,16.7
2022-09-19T05:08:07.339Z,16.8
2022-09-19T05:10:24.395Z,16.8
2022-09-19T05:12:41.317Z,16.8
2022-09-19T05:14:58.298Z,16.6
2022-09-19T05:17:14.636Z,16.6
2022-09-19T05:19:32.162Z,16.9
2022-09-19T05:21:49.301Z,17.3
2022-09-19T05:24:06.280Z,16.6
2022-09-19T05:26:23.460Z,16.6
2022-09-19T05:28:40.360Z,16.8
2022-09-19T05:30:57.426Z,16.8
2022-09-19T05:33:14.105Z,16.8
2022-09-19T05:35:31.947Z,16.6
2022-09-19T05:37:48.610Z,17.4
2022-09-19T05:40:05.835Z,16.8
2022-09-19T05:42:23.207Z,16.8
2022-09-19T05:44:40.338Z,16.6
2022-09-19T05:46:57.449Z,16.1
2022-09-19T05:49:14.091Z,16.5
2022-09-19T05:51:32.051Z,15.7
2022-09-19T05:53:49.330Z,15.4
2022-09-19T05:56:09.955Z,15.3
2022-09-19T05:58:23.818Z,15.4
2022-09-19T06:00:41.046Z,15.9
2022-09-19T06:02:58.342Z,15.3
2022-09-19T06:05:15.779Z,15.2
2022-09-19T06:07:33.159Z,15.3
2022-09-19T06:09:50.443Z,15.4
2022-09-19T06:12:07.311Z,15.4
2022-09-19T06:14:24.684Z,16
2022-09-19T06:16:41.974Z,15.6
2022-09-19T06:18:58.924Z,15.5
2022-09-19T06:21:16.452Z,16
2022-09-19T06:23:33.702Z,15.9
2022-09-19T06:25:51.073Z,16
2022-09-19T06:28:08.403Z,15.9
2022-09-19T06:30:25.641Z,15.8
2022-09-19T06:32:42.987Z,15.9
2022-09-19T06:35:10.829Z,15.9
2022-09-19T06:37:28.238Z,16
2022-09-19T06:39:45.566Z,16.6
2022-09-19T06:42:02.852Z,15.9
2022-09-19T06:44:19.827Z,16.3
2022-09-19T06:46:37.399Z,16.7
2022-09-19T06:48:54.432Z,16.4
2022-09-19T06:51:11.708Z,16.1
2022-09-19T06:53:28.496Z,16.4
2022-09-19T06:55:47.399Z,16.9
2022-09-19T06:58:02.705Z,16.9
2022-09-19T07:00:20.159Z,16.6
2022-09-19T07:02:37.522Z,16.8
2022-09-19T07:04:54.723Z,16.8
2022-09-19T07:07:11.976Z,16.8
2022-09-19T07:14:03.797Z,17.3
2022-09-19T07:16:21.229Z,17.1
2022-09-19T07:18:38.483Z,17.3
2022-09-19T07:20:55.652Z,17.5
2022-09-19T07:23:13.115Z,17.3
2022-09-19T07:25:29.050Z,17.8
2022-09-19T07:27:46.449Z,17.3
2022-09-19T07:30:03.808Z,17.9
2022-09-19T07:32:21.230Z,17.5
2022-09-19T07:34:37.873Z,17.8
2022-09-19T07:36:54.700Z,18.1
2022-09-19T07:39:11.901Z,18.1
2022-09-19T07:41:36.640Z,17.1
2022-09-19T07:43:53.780Z,17.4
2022-09-19T07:46:10.635Z,17.5
2022-09-19T07:48:27.274Z,17.5
2022-09-19T07:50:48.080Z,17.6
2022-09-19T07:53:01.662Z,17.6
2022-09-19T07:55:18.570Z,17.9
2022-09-19T07:57:35.471Z,17.9
2022-09-19T07:59:52.099Z,17.9
2022-09-19T08:02:08.787Z,18.8
2022-09-19T08:04:25.599Z,18.6
2022-09-19T08:06:42.771Z,18.9
2022-09-19T08:08:59.473Z,19.4
2022-09-19T08:11:16.407Z,18.9
2022-09-19T08:13:33.385Z,19.9
2022-09-19T08:15:50.627Z,19
2022-09-19T08:18:07.737Z,19.1
2022-09-19T08:20:24.478Z,19.7
2022-09-19T08:22:41.567Z,19.8
2022-09-19T08:24:58.355Z,20
2022-09-19T08:27:15.430Z,19.6
2022-09-19T08:29:32.485Z,20.1
2022-09-19T08:31:49.516Z,19.6
2022-09-19T08:34:06.464Z,20
2022-09-19T08:36:22.854Z,19.8
2022-09-19T08:38:40.539Z,19.6
2022-09-19T08:40:57.430Z,19.7
2022-09-19T08:43:14.387Z,20.5
2022-09-19T08:45:31.434Z,20.2
2022-09-19T08:47:48.299Z,20.5
2022-09-19T08:50:05.346Z,20.8
2022-09-19T08:52:22.359Z,20.5
2022-09-19T08:54:39.381Z,20.3
2022-09-19T08:56:56.199Z,20.7
2022-09-19T08:59:13.178Z,20.6
2022-09-19T09:02:53.706Z,20.2
2022-09-19T09:05:12.235Z,20.6
2022-09-19T09:07:29.225Z,20.6
2022-09-19T09:09:46.320Z,21
2022-09-19T09:12:02.730Z,21.2
2022-09-19T09:14:29.669Z,21.2
2022-09-19T09:17:17.608Z,20.8
2022-09-19T09:19:34.693Z,20.6
2022-09-19T09:21:51.917Z,20.8
2022-09-19T09:24:32.306Z,21
2022-09-19T09:26:37.183Z,21.8
2022-09-19T09:28:54.042Z,20.9
2022-09-19T09:31:11.066Z,21.5
2022-09-19T09:33:28.043Z,21
2022-09-19T09:35:45.158Z,21.9
2022-09-19T09:38:02.128Z,20.8
2022-09-19T09:40:18.975Z,21.3
2022-09-19T09:42:36.090Z,20.9
2022-09-19T09:44:53.081Z,21
2022-09-19T09:47:09.860Z,20.6
2022-09-19T09:49:27.161Z,21.4
2022-09-19T09:51:43.853Z,21.3
2022-09-19T09:54:00.785Z,20.8
2022-09-19T09:56:17.951Z,21.4
2022-09-19T09:58:35.130Z,20.8
2022-09-19T10:00:51.990Z,21.6
2022-09-19T10:03:08.665Z,21
2022-09-19T10:05:25.590Z,20.6
2022-09-19T10:07:42.779Z,21.1
2022-09-19T10:13:07.906Z,20.9
2022-09-19T10:15:25.146Z,22.1
2022-09-19T10:19:58.783Z,20.9
2022-09-19T10:22:15.735Z,21.7
2022-09-19T10:24:32.157Z,21.8
2022-09-19T10:26:49.741Z,21.4
2022-09-19T10:29:06.677Z,21.2
2022-09-19T10:31:23.548Z,21.8
2022-09-19T10:33:40.535Z,22.1
2022-09-19T10:35:57.625Z,21.6
2022-09-19T10:38:14.405Z,22.1
2022-09-19T10:40:31.413Z,22.6
2022-09-19T10:42:48.275Z,21.1
2022-09-19T10:45:05.234Z,21.4
2022-09-19T10:47:22.441Z,22.1
2022-09-19T10:49:39.016Z,21.4
2022-09-19T10:51:56.019Z,21.4
2022-09-19T10:54:24.623Z,22.8
2022-09-19T10:56:41.603Z,21.9
2022-09-19T10:58:58.495Z,21.3
2022-09-19T11:01:15.417Z,21.9
2022-09-19T11:03:32.464Z,21.7
2022-09-19T11:05:49.414Z,21.6
2022-09-19T11:08:06.414Z,21.4
2022-09-19T11:10:23.340Z,22.4
2022-09-19T11:12:40.082Z,21.7
2022-09-19T11:14:57.071Z,21.7
2022-09-19T11:17:13.842Z,22.1
2022-09-19T11:19:30.883Z,22.2
2022-09-19T11:21:47.777Z,21.7
2022-09-19T11:24:04.611Z,21.9
2022-09-19T11:26:21.826Z,21.9
2022-09-19T11:28:38.536Z,21.3
2022-09-19T11:30:55.485Z,22.1
2022-09-19T11:35:03.046Z,21.9
2022-09-19T11:37:15.322Z,21.5
2022-09-19T11:40:23.053Z,21.6
2022-09-19T11:42:43.612Z,21.2
2022-09-19T11:44:56.980Z,21.6
2022-09-19T11:49:30.752Z,21.3
2022-09-19T11:51:47.849Z,21.6
2022-09-19T11:54:04.486Z,21.5
2022-09-19T11:56:21.392Z,21.8
2022-09-19T11:58:38.418Z,21.8
2022-09-19T12:00:55.333Z,21.6
2022-09-19T12:03:12.355Z,22.3
2022-09-19T12:05:29.254Z,21.7
2022-09-19T12:07:46.299Z,21.6
2022-09-19T12:10:02.693Z,22.6
2022-09-19T12:12:19.451Z,23.2
2022-09-19T12:14:39.654Z,21.9
2022-09-19T12:16:53.947Z,22.2
2022-09-19T12:19:10.873Z,21.8
2022-09-19T12:21:27.781Z,22.7
2022-09-19T12:23:44.269Z,21.5
2022-09-19T12:26:01.738Z,23
2022-09-19T12:28:18.631Z,21.5
2022-09-19T12:30:35.522Z,22.2
2022-09-19T12:32:52.452Z,21.8
2022-09-19T12:35:09.421Z,22.4
2022-09-19T12:37:26.626Z,21.7
2022-09-19T12:39:43.227Z,21.3
2022-09-19T12:42:00.157Z,21.8
2022-09-19T12:44:16.468Z,21.8
2022-09-19T12:46:33.949Z,22.5
2022-09-19T12:48:50.925Z,21.9
2022-09-19T12:51:07.755Z,23.5
2022-09-19T12:53:24.860Z,22.5
2022-09-19T12:55:41.766Z,21.8
2022-09-19T12:57:58.620Z,21.7
2022-09-19T13:00:15.670Z,21.9
2022-09-19T13:02:32.527Z,22
2022-09-19T13:04:49.386Z,21.6
2022-09-19T13:07:06.367Z,22.6
2022-09-19T13:09:23.271Z,22.4
2022-09-19T13:11:40.394Z,22.5
2022-09-19T13:13:57.143Z,22.6
2022-09-19T13:16:13.984Z,22.9
2022-09-19T13:18:30.865Z,22.6
2022-09-19T13:20:47.719Z,22.4
2022-09-19T13:23:04.904Z,22.9
2022-09-19T13:25:21.639Z,22.1
2022-09-19T13:27:38.469Z,22.1
2022-09-19T13:29:55.366Z,22.2
2022-09-19T13:32:12.375Z,22.9
2022-09-19T13:34:29.125Z,22.7
2022-09-19T13:36:46.393Z,22.6
2022-09-19T13:39:03.004Z,22.9
2022-09-19T13:41:19.864Z,21.9
2022-09-19T13:43:36.767Z,22.1
2022-09-19T13:45:54.789Z,22.8
2022-09-19T13:48:10.637Z,22.3
2022-09-19T13:50:27.574Z,21.9
2022-09-19T13:52:44.392Z,22.6
2022-09-19T13:55:01.256Z,22.4
2022-09-19T13:57:18.180Z,22.8
2022-09-19T13:59:35.158Z,22.1
2022-09-19T14:01:52.039Z,22.2
2022-09-19T14:04:08.806Z,22.6
2022-09-19T14:06:25.811Z,22.8
2022-09-19T14:10:39.611Z,22.2
2022-09-19T14:12:56.592Z,22
2022-09-19T14:15:13.571Z,22.1
2022-09-19T14:17:30.475Z,21.6
2022-09-19T14:19:47.389Z,22.1
2022-09-19T14:22:04.313Z,22.7
2022-09-19T14:24:21.174Z,22
2022-09-19T14:26:38.066Z,22.6
2022-09-19T14:28:54.943Z,22.3
2022-09-19T14:31:11.887Z,23
2022-09-19T14:33:28.702Z,22.6
2022-09-19T14:35:45.741Z,22.5
2022-09-19T14:38:02.605Z,22.3
2022-09-19T14:40:19.576Z,22.8
2022-09-19T14:42:44.240Z,22.9
2022-09-19T14:45:03.901Z,21.8
2022-09-19T14:47:17.973Z,22.3
2022-09-19T14:49:34.945Z,20.9
2022-09-19T14:51:51.287Z,20.9
2022-09-19T14:54:08.045Z,21.8
2022-09-19T14:56:24.859Z,21.8
2022-09-19T14:58:41.518Z,22
2022-09-19T15:02:25.354Z,21.6
2022-09-19T15:04:41.931Z,22
2022-09-19T15:06:58.861Z,21.8
2022-09-19T15:09:15.747Z,21.7
2022-09-19T15:11:32.689Z,21.1
2022-09-19T15:13:49.434Z,21.3
2022-09-19T15:16:06.364Z,22.3
2022-09-19T15:18:23.157Z,22
2022-09-19T15:20:40.781Z,21.7
2022-09-19T15:22:56.810Z,21.8
2022-09-19T15:25:13.773Z,21.5
2022-09-19T15:27:30.366Z,21.4
2022-09-19T15:29:48.949Z,21.3
2022-09-19T15:32:04.020Z,22.4
2022-09-19T15:34:20.819Z,22.4
2022-09-19T15:36:37.595Z,22.3
2022-09-19T15:38:54.424Z,21.9
2022-09-19T15:41:11.346Z,22
2022-09-19T15:43:28.123Z,22.4
2022-09-19T15:45:44.989Z,21.3
2022-09-19T15:48:01.410Z,20.6
2022-09-19T15:50:18.457Z,21.4
2022-09-19T15:52:35.087Z,21
2022-09-19T15:54:51.883Z,21.6
2022-09-19T15:57:08.824Z,21.6
2022-09-19T15:59:25.770Z,20.6
2022-09-19T16:01:42.656Z,20.3
2022-09-19T16:03:59.398Z,20.3
2022-09-19T16:06:16.154Z,20.1
2022-09-19T16:08:32.199Z,20.1
2022-09-19T16:10:55.770Z,20.8
2022-09-19T16:13:12.309Z,20.4
2022-09-19T16:15:29.080Z,20.3
2022-09-19T16:17:45.875Z,20.2
2022-09-19T16:20:02.617Z,20.2
2022-09-19T16:22:18.902Z,20.1
2022-09-19T16:24:35.567Z,20.8
2022-09-19T16:26:52.161Z,20
2022-09-19T16:29:08.984Z,20.1
2022-09-19T16:31:25.868Z,20
2022-09-19T16:33:42.489Z,19.9
2022-09-19T16:35:59.302Z,20.3
2022-09-19T16:38:15.949Z,20.1
2022-09-19T16:40:32.698Z,19.9
2022-09-19T16:42:49.623Z,20.4
2022-09-19T16:45:06.685Z,20.6
2022-09-19T16:47:23.743Z,20.6
2022-09-19T16:49:40.775Z,20.5
2022-09-19T16:51:57.620Z,20.6
2022-09-19T16:54:13.863Z,20.6
2022-09-19T16:56:31.044Z,21.1
2022-09-19T16:58:47.907Z,20.8
2022-09-19T17:01:05.162Z,20.6
2022-09-19T17:03:22.119Z,20.8
2022-09-19T17:05:38.369Z,20.9
2022-09-19T17:07:54.701Z,21.2
2022-09-19T17:10:11.816Z,21.2
2022-09-19T17:12:28.929Z,20.9
2022-09-19T17:14:46.035Z,20.9
2022-09-19T17:17:03.305Z,20.9
2022-09-19T17:19:19.321Z,20.9
2022-09-19T17:21:36.372Z,21.2
2022-09-19T17:23:52.784Z,21
2022-09-19T17:26:09.271Z,21.3
2022-09-19T17:28:26.250Z,21.3
2022-09-19T17:30:42.758Z,21
2022-09-19T17:33:03.579Z,21.3
2022-09-19T17:35:17.078Z,20.9
2022-09-19T17:37:33.343Z,20.9
2022-09-19T17:39:49.895Z,21.4
2022-09-19T17:42:07.202Z,21.2
2022-09-19T17:44:23.418Z,21
2022-09-19T17:46:40.556Z,21.2
2022-09-19T17:49:02.881Z,20.9
2022-09-19T17:51:19.915Z,20.4
2022-09-19T17:53:36.363Z,20.8
2022-09-19T17:55:53.461Z,21.2
2022-09-19T17:58:10.826Z,20.8
2022-09-19T18:00:27.866Z,20.6
2022-09-19T18:02:44.915Z,20.9
2022-09-19T18:05:01.321Z,20.9
2022-09-19T18:07:18.343Z,21.2
2022-09-19T18:09:35.642Z,20.9
2022-09-19T18:11:52.686Z,20.8
2022-09-19T18:14:12.666Z,20.8
2022-09-19T18:16:27.141Z,20.8
2022-09-19T18:18:44.550Z,20.8
2022-09-19T18:21:01.410Z,20.8
2022-09-19T18:23:18.747Z,20.8
2022-09-19T18:25:35.688Z,20.8
2022-09-19T18:27:52.985Z,20.7
2022-09-19T18:30:10.018Z,21
2022-09-19T18:32:27.031Z,20.8
2022-09-19T18:34:44.316Z,20.8
2022-09-19T18:37:01.490Z,20.7
2022-09-19T18:39:18.745Z,20.8
2022-09-19T18:41:35.691Z,20.8
2022-09-19T18:43:53.050Z,21
2022-09-19T18:46:10.146Z,20.8
2022-09-19T18:48:27.149Z,20.7
2022-09-19T18:50:44.315Z,20.8
2022-09-19T18:53:01.387Z,20.6
2022-09-19T18:55:18.787Z,20.8
2022-09-19T18:57:35.767Z,20.7
2022-09-19T18:59:53.128Z,20.5
2022-09-19T19:02:10.341Z,20.7
2022-09-19T19:04:27.367Z,20.7
2022-09-19T19:06:44.409Z,20.8
2022-09-19T19:09:01.709Z,20.6
2022-09-19T19:11:18.649Z,20.6
2022-09-19T19:13:52.134Z,20.7
2022-09-19T19:16:09.091Z,20.7
2022-09-19T19:18:26.196Z,20.8
2022-09-19T19:20:43.148Z,20.6
2022-09-19T19:23:00.166Z,20.6
2022-09-19T19:25:17.293Z,20.4
2022-09-19T19:27:34.329Z,20.4
2022-09-19T19:29:51.252Z,20.5
2022-09-19T19:32:08.404Z,20.6
2022-09-19T19:34:25.499Z,20.6
2022-09-19T19:36:42.472Z,20.3
2022-09-19T19:38:59.895Z,20.4
2022-09-19T19:41:16.768Z,20.6
2022-09-19T19:43:33.280Z,20.6
2022-09-19T19:45:50.172Z,20.5
2022-09-19T19:48:07.161Z,20.9
2022-09-19T19:50:24.608Z,20.3
2022-09-19T19:52:40.974Z,20.3
2022-09-19T19:54:58.751Z,20.6
2022-09-19T19:57:15.858Z,20.6
2022-09-19T19:59:31.967Z,20.4
2022-09-19T20:01:49.185Z,20.7
2022-09-19T20:04:06.273Z,20.4
2022-09-19T20:06:23.652Z,20.2
2022-09-19T20:08:40.692Z,20.5
2022-09-19T20:10:57.157Z,20.5
2022-09-19T20:13:14.052Z,20.6
2022-09-19T20:15:31.409Z,20.1
2022-09-19T20:17:48.366Z,20.3
2022-09-19T20:20:05.794Z,20.5
2022-09-19T20:22:22.894Z,20.3
2022-09-19T20:24:40.812Z,20.3
2022-09-19T20:26:56.218Z,20.5
2022-09-19T20:29:13.220Z,20.6
2022-09-19T20:31:30.617Z,20.2
2022-09-19T20:33:47.487Z,20.1
2022-09-19T20:36:04.810Z,20.3
2022-09-19T20:38:20.871Z,20.6
2022-09-19T20:40:38.222Z,20.2
2022-09-19T20:42:55.262Z,20.1
2022-09-19T20:45:12.327Z,20.3
2022-09-19T20:47:29.657Z,20.4
2022-09-19T20:49:46.642Z,20
2022-09-19T20:52:03.958Z,20.3
2022-09-19T20:54:19.921Z,20.1
2022-09-19T20:56:36.441Z,20.5
2022-09-19T20:58:52.933Z,20.6
2022-09-19T21:02:25.503Z,20.1
2022-09-19T21:04:42.541Z,20.1
2022-09-19T21:06:59.620Z,20.1
2022-09-19T21:09:16.683Z,20.1
2022-09-19T21:11:33.767Z,20.3
2022-09-19T21:14:02.032Z,20.1
2022-09-19T21:16:19.105Z,20.4
2022-09-19T21:18:35.412Z,20.3
2022-09-19T21:20:52.390Z,20.6
2022-09-19T21:23:08.687Z,19.8
2022-09-19T21:25:25.789Z,20.5
2022-09-19T21:27:42.918Z,19.9
2022-09-19T21:29:58.990Z,19.8
2022-09-19T21:32:15.953Z,20.5
2022-09-19T21:34:33.053Z,19.9
2022-09-19T21:36:49.172Z,19.9
2022-09-19T21:39:06.222Z,20.4
2022-09-19T21:41:23.318Z,19.8
2022-09-19T21:43:40.465Z,20.1
2022-09-19T21:45:57.916Z,19.9
2022-09-19T21:48:14.633Z,20.1
2022-09-19T21:50:31.842Z,19.8
2022-09-19T21:52:48.950Z,20.1
2022-09-19T21:55:05.999Z,20
2022-09-19T21:57:23.346Z,20.2
2022-09-19T21:59:39.727Z,20.1
2022-09-19T22:01:57.735Z,19.8
2022-09-19T22:04:13.586Z,20.1
2022-09-19T22:06:30.784Z,20.4
2022-09-19T22:08:47.847Z,20
2022-09-19T22:11:04.757Z,19.9
2022-09-19T22:13:22.063Z,19.9
2022-09-19T22:15:39.082Z,20
2022-09-19T22:17:56.318Z,20
2022-09-19T22:20:13.286Z,20
2022-09-19T22:22:30.498Z,19.9
2022-09-19T22:24:47.403Z,19.7
2022-09-19T22:27:04.740Z,20
2022-09-19T22:29:21.805Z,19.9
2022-09-19T22:31:39.270Z,20
2022-09-19T22:33:56.064Z,19.8
2022-09-19T22:36:13.064Z,19.9
2022-09-19T22:38:29.146Z,20.1
2022-09-19T22:40:46.023Z,20.4
2022-09-19T22:43:03.316Z,19.9
2022-09-19T22:45:20.396Z,19.9
2022-09-19T22:47:37.692Z,20
2022-09-19T22:49:54.512Z,19.9
2022-09-19T22:52:11.881Z,19.9
2022-09-19T22:54:28.775Z,19.8
2022-09-19T22:56:45.809Z,19.9
2022-09-19T22:59:03.052Z,19.8
2022-09-19T23:01:20.732Z,19.8
2022-09-19T23:03:36.508Z,19.5
2022-09-19T23:05:53.155Z,20.3
2022-09-19T23:08:10.471Z,19.7
2022-09-19T23:10:27.687Z,19.6
2022-09-19T23:12:44.759Z,20.1
2022-09-19T23:15:01.845Z,19.9
2022-09-19T23:17:19.272Z,19.8
2022-09-19T23:19:35.994Z,19.8
2022-09-19T23:21:53.055Z,19.8
2022-09-19T23:24:10.294Z,19.8
2022-09-19T23:26:27.314Z,19.7
2022-09-19T23:28:44.472Z,19.8
2022-09-19T23:31:01.438Z,19.6
2022-09-19T23:33:18.487Z,19.8
2022-09-19T23:35:35.516Z,19.7
2022-09-19T23:37:52.793Z,19.7
2022-09-19T23:40:09.955Z,19.6
2022-09-19T23:42:26.803Z,19.7
2022-09-19T23:44:42.917Z,19.8
2022-09-19T23:46:59.767Z,20.1
2022-09-19T23:49:17.129Z,19.6
2022-09-19T23:51:34.117Z,19.9
2022-09-19T23:53:51.362Z,19.8
2022-09-19T23:56:08.412Z,19.9
2022-09-19T23:58:25.652Z,19.8
